createdAt,value
2022-10-06T00:02:54.938Z,1.58
2022-10-06T00:08:10.426Z,1.80
2022-10-06T00:13:25.787Z,1.42
2022-10-06T00:18:40.790Z,1.17
2022-10-06T00:23:55.814Z,1.63
2022-10-06T00:29:10.811Z,1.20
2022-10-06T00:34:25.810Z,2.22
2022-10-06T00:39:40.802Z,1.23
2022-10-06T00:44:56.144Z,1.20
2022-10-06T00:50:11.801Z,1.30
2022-10-06T00:55:26.818Z,1.67
2022-10-06T01:00:42.113Z,2.00
2022-10-06T01:05:57.821Z,0.93
2022-10-06T01:11:12.887Z,1.40
2022-10-06T01:16:28.134Z,1.45
2022-10-06T01:21:44.197Z,1.40
2022-10-06T01:26:59.794Z,2.08
2022-10-06T01:32:14.805Z,1.80
2022-10-06T01:37:29.868Z,1.83
2022-10-06T01:42:45.786Z,1.38
2022-10-06T01:48:01.090Z,1.77
2022-10-06T01:53:16.824Z,1.15
2022-10-06T01:58:32.129Z,1.80
2022-10-06T02:03:49.131Z,1.55
2022-10-06T02:09:05.118Z,1.40
2022-10-06T02:14:21.571Z,2.00
2022-10-06T02:19:36.824Z,1.58
2022-10-06T02:24:52.100Z,2.08
2022-10-06T02:30:07.846Z,1.85
2022-10-06T02:35:23.814Z,1.83
2022-10-06T02:40:38.872Z,1.75
2022-10-06T02:45:53.785Z,2.00
2022-10-06T02:51:08.556Z,1.67
2022-10-06T02:56:24.849Z,2.03
2022-10-06T03:01:39.919Z,1.48
2022-10-06T03:06:58.831Z,1.55
2022-10-06T03:12:19.107Z,1.52
2022-10-06T03:17:34.840Z,1.50
2022-10-06T03:22:49.807Z,2.33
2022-10-06T03:28:04.919Z,1.45
2022-10-06T03:33:21.130Z,2.97
2022-10-06T03:38:37.188Z,2.30
2022-10-06T03:43:52.887Z,2.28
2022-10-06T03:49:08.819Z,2.78
2022-10-06T03:54:24.151Z,2.10
2022-10-06T03:59:40.130Z,2.88
2022-10-06T04:04:56.808Z,3.35
2022-10-06T04:10:12.163Z,3.30
2022-10-06T04:15:29.190Z,3.83
2022-10-06T04:20:44.903Z,3.38
2022-10-06T04:25:59.863Z,3.70
2022-10-06T04:31:15.190Z,4.32
2022-10-06T04:36:30.849Z,4.85
2022-10-06T04:41:46.185Z,5.10
2022-10-06T04:47:09.195Z,4.53
2022-10-06T04:52:25.159Z,4.30
2022-10-06T04:57:40.930Z,4.38
2022-10-06T05:02:55.891Z,3.50
2022-10-06T05:08:10.905Z,3.70
2022-10-06T05:13:26.145Z,3.78
2022-10-06T05:18:42.841Z,3.70
2022-10-06T05:23:58.206Z,3.25
2022-10-06T05:29:14.849Z,3.47
2022-10-06T05:34:29.886Z,2.50
2022-10-06T05:39:45.119Z,3.35
2022-10-06T05:45:00.873Z,3.42
2022-10-06T05:50:16.111Z,4.10
2022-10-06T05:55:32.553Z,3.58
2022-10-06T06:00:47.820Z,3.35
2022-10-06T06:06:02.871Z,3.30
2022-10-06T06:11:18.185Z,3.65
2022-10-06T06:16:33.893Z,4.43
2022-10-06T06:21:48.617Z,3.17
2022-10-06T06:27:04.157Z,3.95
2022-10-06T06:32:21.826Z,3.25
2022-10-06T06:37:37.847Z,3.30
2022-10-06T06:42:54.032Z,4.18
2022-10-06T06:48:22.152Z,4.05
2022-10-06T06:53:38.107Z,3.33
2022-10-06T06:58:53.900Z,3.78
2022-10-06T07:04:09.152Z,3.75
2022-10-06T07:09:24.856Z,3.45
2022-10-06T07:14:46.839Z,3.25
2022-10-06T07:20:01.851Z,3.38
2022-10-06T07:25:21.639Z,3.20
2022-10-06T07:30:45.188Z,3.55
2022-10-06T07:36:03.186Z,3.78
2022-10-06T07:41:20.601Z,3.47
2022-10-06T07:46:39.846Z,3.47
2022-10-06T07:51:58.817Z,3.35
2022-10-06T07:57:13.866Z,3.28
2022-10-06T08:02:30.330Z,3.30
2022-10-06T08:07:49.184Z,2.78
2022-10-06T08:13:04.857Z,3.10
2022-10-06T08:18:40.957Z,2.50
2022-10-06T08:23:54.847Z,2.92
2022-10-06T08:29:09.885Z,3.08
2022-10-06T08:34:24.862Z,3.38
2022-10-06T08:39:39.842Z,3.20
2022-10-06T08:44:55.069Z,3.08
2022-10-06T08:50:11.172Z,2.83
2022-10-06T08:55:26.833Z,3.65
2022-10-06T09:00:42.178Z,2.50
2022-10-06T09:05:57.843Z,3.42
2022-10-06T09:11:12.845Z,2.80
2022-10-06T09:16:27.935Z,3.15
2022-10-06T09:21:42.860Z,3.20
2022-10-06T09:26:57.886Z,2.42
2022-10-06T09:32:12.932Z,2.92
2022-10-06T09:37:28.169Z,2.90
2022-10-06T09:42:43.657Z,3.30
2022-10-06T09:47:58.838Z,2.60
2022-10-06T09:53:13.912Z,2.10
2022-10-06T09:58:28.743Z,2.33
2022-10-06T10:03:51.511Z,2.60
2022-10-06T10:09:20.656Z,2.08
2022-10-06T10:14:36.889Z,2.35
2022-10-06T10:19:51.898Z,2.15
2022-10-06T10:25:06.930Z,2.28
2022-10-06T10:30:22.268Z,2.33
2022-10-06T10:35:37.855Z,2.03
2022-10-06T10:40:52.849Z,1.98
2022-10-06T10:46:07.891Z,1.60
2022-10-06T10:51:23.208Z,2.28
2022-10-06T10:56:39.138Z,2.30
2022-10-06T11:01:54.878Z,3.00
2022-10-06T11:07:09.896Z,3.03
2022-10-06T11:12:24.922Z,4.57
2022-10-06T11:17:39.887Z,5.22
2022-10-06T11:22:54.843Z,5.40
2022-10-06T11:28:09.896Z,5.32
2022-10-06T11:33:24.869Z,4.88
2022-10-06T11:38:39.881Z,5.22
2022-10-06T11:43:54.909Z,5.95
2022-10-06T11:49:09.865Z,5.32
2022-10-06T11:54:25.078Z,4.90
2022-10-06T11:59:41.121Z,5.10
2022-10-06T12:04:57.490Z,4.78
2022-10-06T12:10:13.157Z,5.00
2022-10-06T12:21:04.876Z,4.78
2022-10-06T12:26:19.837Z,3.75
2022-10-06T12:31:34.898Z,4.10
2022-10-06T12:36:49.859Z,3.45
2022-10-06T12:42:04.889Z,3.70
2022-10-06T12:47:19.885Z,3.40
2022-10-06T12:52:35.200Z,3.88
2022-10-06T12:57:50.931Z,3.35
2022-10-06T13:03:05.955Z,3.00
2022-10-06T13:08:20.941Z,3.83
2022-10-06T13:13:35.874Z,3.80
2022-10-06T13:18:51.177Z,2.42
2022-10-06T13:24:06.637Z,3.10
2022-10-06T13:29:21.853Z,2.80
2022-10-06T13:34:37.263Z,2.70
2022-10-06T13:39:53.086Z,2.88
2022-10-06T13:45:08.187Z,2.90
2022-10-06T13:50:23.903Z,2.20
2022-10-06T13:55:39.271Z,2.58
2022-10-06T14:00:54.924Z,2.25
2022-10-06T14:06:10.171Z,2.03
2022-10-06T14:11:25.908Z,2.75
2022-10-06T14:16:40.631Z,2.20
2022-10-06T14:21:55.927Z,2.13
2022-10-06T14:27:10.954Z,1.65
2022-10-06T14:32:25.639Z,2.03
2022-10-06T14:37:40.875Z,1.80
2022-10-06T14:42:55.859Z,1.95
2022-10-06T14:48:11.145Z,2.05
2022-10-06T14:53:26.639Z,1.75
2022-10-06T14:58:41.886Z,1.80
2022-10-06T15:03:56.923Z,2.08
2022-10-06T15:09:12.117Z,1.83
2022-10-06T15:14:28.132Z,1.90
2022-10-06T15:19:44.861Z,1.90
2022-10-06T15:24:59.862Z,1.47
2022-10-06T15:30:14.882Z,1.20
2022-10-06T15:35:29.904Z,2.10
2022-10-06T15:40:44.632Z,1.92
2022-10-06T15:45:59.857Z,1.50
2022-10-06T15:51:14.897Z,1.95
2022-10-06T15:56:29.880Z,1.70
2022-10-06T16:01:44.991Z,19.13
2022-10-06T16:07:00.897Z,37.03
2022-10-06T16:12:16.201Z,41.08
2022-10-06T16:17:32.934Z,48.38
2022-10-06T16:22:47.910Z,56.50
2022-10-06T16:28:02.926Z,61.15
2022-10-06T16:33:17.882Z,62.10
2022-10-06T16:38:33.136Z,57.13
2022-10-06T16:43:48.874Z,60.28
2022-10-06T16:49:04.266Z,55.25
2022-10-06T16:54:19.866Z,58.47
2022-10-06T16:59:35.202Z,54.47
2022-10-06T17:04:51.265Z,46.72
2022-10-06T17:10:21.432Z,49.92
2022-10-06T17:15:37.271Z,39.55
2022-10-06T17:20:54.197Z,31.63
2022-10-06T17:26:11.225Z,37.67
2022-10-06T17:31:26.937Z,32.03
2022-10-06T17:36:41.885Z,29.38
2022-10-06T17:41:57.220Z,31.00
2022-10-06T17:47:12.907Z,27.92
2022-10-06T17:52:27.871Z,26.75
2022-10-06T17:57:42.908Z,25.67
2022-10-06T18:02:57.912Z,18.55
2022-10-06T18:08:13.192Z,18.60
2022-10-06T18:13:28.919Z,21.27
2022-10-06T18:18:43.903Z,16.77
2022-10-06T18:23:58.908Z,15.38
2022-10-06T18:29:13.929Z,16.52
2022-10-06T18:40:03.897Z,14.43
2022-10-06T18:45:18.911Z,11.23
2022-10-06T18:50:33.869Z,10.90
2022-10-06T18:55:48.901Z,19.90
2022-10-06T19:01:04.348Z,20.58
2022-10-06T19:06:19.890Z,20.90
2022-10-06T19:11:34.876Z,20.45
2022-10-06T19:16:50.226Z,18.65
2022-10-06T19:22:05.899Z,17.88
2022-10-06T19:27:20.814Z,16.95
2022-10-06T19:32:35.945Z,15.63
2022-10-06T19:37:51.209Z,15.02
2022-10-06T19:43:06.905Z,14.40
2022-10-06T19:48:21.923Z,13.77
2022-10-06T19:53:36.890Z,13.25
2022-10-06T19:58:51.889Z,13.32
2022-10-06T20:04:06.853Z,12.27
2022-10-06T20:09:21.894Z,11.10
2022-10-06T20:14:36.892Z,11.05
2022-10-06T20:19:56.718Z,11.32
2022-10-06T20:25:12.897Z,11.43
2022-10-06T20:30:27.900Z,10.43
2022-10-06T20:35:43.204Z,10.18
2022-10-06T20:40:58.949Z,9.80
2022-10-06T20:46:13.988Z,9.90
2022-10-06T20:51:28.918Z,8.80
2022-10-06T20:56:43.937Z,8.82
2022-10-06T21:02:00.085Z,8.35
2022-10-06T21:07:16.261Z,7.85
2022-10-06T21:12:31.881Z,7.57
2022-10-06T21:17:47.157Z,8.00
2022-10-06T21:23:02.885Z,7.93
2022-10-06T21:28:17.947Z,7.22
2022-10-06T21:33:32.872Z,6.97
2022-10-06T21:38:47.882Z,5.75
2022-10-06T21:44:02.944Z,6.32
2022-10-06T21:49:18.217Z,4.82
2022-10-06T21:54:34.111Z,5.43
2022-10-06T21:59:49.923Z,4.97
2022-10-06T22:05:04.969Z,6.10
2022-10-06T22:10:19.881Z,5.45
2022-10-06T22:15:34.930Z,4.63
2022-10-06T22:20:49.932Z,4.38
2022-10-06T22:26:05.186Z,4.30
2022-10-06T22:31:25.613Z,4.47
2022-10-06T22:36:40.886Z,4.30
2022-10-06T22:41:56.194Z,3.67
2022-10-06T22:47:11.907Z,3.63
2022-10-06T22:52:26.868Z,3.75
2022-10-06T22:57:42.179Z,3.83
2022-10-06T23:02:58.218Z,3.83
2022-10-06T23:08:14.207Z,3.38
2022-10-06T23:13:29.913Z,3.35
2022-10-06T23:18:45.884Z,2.90
2022-10-06T23:24:00.879Z,3.13
2022-10-06T23:29:16.199Z,2.90
2022-10-06T23:34:32.223Z,3.60
2022-10-06T23:39:48.196Z,2.67
2022-10-06T23:45:03.960Z,2.90
2022-10-06T23:50:18.931Z,2.70
2022-10-06T23:55:33.925Z,2.78
